sensor_id;sensor_type;location;lat;lon;timestamp;temperature;humidity
12254;DHT22;6189;52.526;13.390;2024-03-23T00:53:49;11.30;99.90
12254;DHT22;6189;52.526;13.390;2024-03-23T00:56:35;11.30;99.90
12254;DHT22;6189;52.526;13.390;2024-03-23T00:59:22;11.30;99.90
12254;DHT22;6189;52.526;13.390;2024-03-23T01:02:12;11.30;99.90
12254;DHT22;6189;52.526;13.390;2024-03-23T01:05:00;11.70;99.90
12254;DHT22;6189;52.526;13.390;2024-03-23T01:07:46;11.30;99.90
12254;DHT22;6189;52.526;13.390;2024-03-23T01:10:34;11.20;99.90
12254;DHT22;6189;52.526;13.390;2024-03-23T01:13:20;11.20;99.90
12254;DHT22;6189;52.526;13.390;2024-03-23T01:16:08;11.10;99.90
12254;DHT22;6189;52.526;13.390;2024-03-23T01:18:54;11.20;99.90
12254;DHT22;6189;52.526;13.390;2024-03-23T01:21:41;11.30;99.90
12254;DHT22;6189;52.526;13.390;2024-03-23T01:24:29;11.20;99.90
12254;DHT22;6189;52.526;13.390;2024-03-23T01:27:17;11.20;99.90
12254;DHT22;6189;52.526;13.390;2024-03-23T01:30:04;11.20;99.90
12254;DHT22;6189;52.526;13.390;2024-03-23T01:32:51;11.20;99.90
12254;DHT22;6189;52.526;13.390;2024-03-23T01:35:37;11.20;99.90
12254;DHT22;6189;52.526;13.390;2024-03-23T01:38:24;11.20;99.90
12254;DHT22;6189;52.526;13.390;2024-03-23T01:41:10;11.20;99.90
12254;DHT22;6189;52.526;13.390;2024-03-23T01:43:59;11.20;99.90
12254;DHT22;6189;52.526;13.390;2024-03-23T01:46:50;11.20;99.90
12254;DHT22;6189;52.526;13.390;2024-03-23T01:49:38;11.20;99.90
12254;DHT22;6189;52.526;13.390;2024-03-23T01:52:24;11.30;99.90
12254;DHT22;6189;52.526;13.390;2024-03-23T01:55:14;11.30;99.90
12254;DHT22;6189;52.526;13.390;2024-03-23T01:58:01;11.20;99.90
12254;DHT22;6189;52.526;13.390;2024-03-23T02:00:49;11.10;99.90
12254;DHT22;6189;52.526;13.390;2024-03-23T02:03:35;11.10;99.90
12254;DHT22;6189;52.526;13.390;2024-03-23T02:06:22;11.10;99.90
12254;DHT22;6189;52.526;13.390;2024-03-23T02:09:10;11.10;99.90
12254;DHT22;6189;52.526;13.390;2024-03-23T02:11:57;11.20;99.90
12254;DHT22;6189;52.526;13.390;2024-03-23T02:14:44;11.20;99.90
12254;DHT22;6189;52.526;13.390;2024-03-23T02:17:33;11.20;99.90
12254;DHT22;6189;52.526;13.390;2024-03-23T02:20:19;11.10;99.90
12254;DHT22;6189;52.526;13.390;2024-03-23T02:23:14;11.10;99.90
12254;DHT22;6189;52.526;13.390;2024-03-23T02:26:00;11.20;99.90
12254;DHT22;6189;52.526;13.390;2024-03-23T02:28:47;11.20;99.90
12254;DHT22;6189;52.526;13.390;2024-03-23T02:31:34;11.20;99.90
12254;DHT22;6189;52.526;13.390;2024-03-23T02:34:21;11.10;99.90
12254;DHT22;6189;52.526;13.390;2024-03-23T02:37:10;11.20;99.90
12254;DHT22;6189;52.526;13.390;2024-03-23T02:39:58;11.10;99.90
12254;DHT22;6189;52.526;13.390;2024-03-23T02:42:44;11.10;99.90
12254;DHT22;6189;52.526;13.390;2024-03-23T02:45:31;11.10;99.90
12254;DHT22;6189;52.526;13.390;2024-03-23T02:48:17;11.10;99.90
12254;DHT22;6189;52.526;13.390;2024-03-23T02:51:05;11.10;99.90
12254;DHT22;6189;52.526;13.390;2024-03-23T02:53:51;11.00;99.90
12254;DHT22;6189;52.526;13.390;2024-03-23T02:56:39;11.00;99.90
12254;DHT22;6189;52.526;13.390;2024-03-23T02:59:25;11.00;99.90
12254;DHT22;6189;52.526;13.390;2024-03-23T03:02:13;11.00;99.90
12254;DHT22;6189;52.526;13.390;2024-03-23T03:04:59;11.00;99.90
12254;DHT22;6189;52.526;13.390;2024-03-23T03:07:47;11.00;99.90
12254;DHT22;6189;52.526;13.390;2024-03-23T03:10:34;11.00;99.90
12254;DHT22;6189;52.526;13.390;2024-03-23T03:13:23;11.00;99.90
12254;DHT22;6189;52.526;13.390;2024-03-23T03:21:46;11.00;99.90
12254;DHT22;6189;52.526;13.390;2024-03-23T03:27:19;11.00;99.90
12254;DHT22;6189;52.526;13.390;2024-03-23T03:30:10;11.00;99.90
12254;DHT22;6189;52.526;13.390;2024-03-23T03:32:56;10.80;99.90
12254;DHT22;6189;52.526;13.390;2024-03-23T03:35:43;10.70;99.90
12254;DHT22;6189;52.526;13.390;2024-03-23T03:38:31;10.60;99.90
12254;DHT22;6189;52.526;13.390;2024-03-23T03:41:18;10.60;99.90
12254;DHT22;6189;52.526;13.390;2024-03-23T03:44:04;10.70;99.90
12254;DHT22;6189;52.526;13.390;2024-03-23T03:46:53;10.80;99.90
12254;DHT22;6189;52.526;13.390;2024-03-23T03:49:39;10.80;99.90
12254;DHT22;6189;52.526;13.390;2024-03-23T03:52:26;10.80;99.90
12254;DHT22;6189;52.526;13.390;2024-03-23T03:55:13;10.80;99.90
12254;DHT22;6189;52.526;13.390;2024-03-23T03:58:00;10.80;99.90
12254;DHT22;6189;52.526;13.390;2024-03-23T04:00:46;10.60;99.90
12254;DHT22;6189;52.526;13.390;2024-03-23T04:03:35;10.50;99.90
12254;DHT22;6189;52.526;13.390;2024-03-23T04:06:21;10.50;99.90
12254;DHT22;6189;52.526;13.390;2024-03-23T04:09:09;10.50;99.90
12254;DHT22;6189;52.526;13.390;2024-03-23T04:11:56;10.60;99.90
12254;DHT22;6189;52.526;13.390;2024-03-23T04:14:43;10.40;99.90
12254;DHT22;6189;52.526;13.390;2024-03-23T04:17:29;10.50;99.90
12254;DHT22;6189;52.526;13.390;2024-03-23T04:20:20;10.30;99.90
12254;DHT22;6189;52.526;13.390;2024-03-23T04:23:06;10.20;99.90
12254;DHT22;6189;52.526;13.390;2024-03-23T04:25:53;10.10;99.90
12254;DHT22;6189;52.526;13.390;2024-03-23T04:28:39;10.00;99.90
12254;DHT22;6189;52.526;13.390;2024-03-23T04:31:26;9.90;99.90
12254;DHT22;6189;52.526;13.390;2024-03-23T04:34:13;9.90;99.90
12254;DHT22;6189;52.526;13.390;2024-03-23T04:37:00;9.60;99.90
12254;DHT22;6189;52.526;13.390;2024-03-23T04:39:48;9.70;99.90
12254;DHT22;6189;52.526;13.390;2024-03-23T04:42:35;9.70;99.90
12254;DHT22;6189;52.526;13.390;2024-03-23T04:45:23;9.80;99.90
12254;DHT22;6189;52.526;13.390;2024-03-23T04:48:10;9.80;99.90
12254;DHT22;6189;52.526;13.390;2024-03-23T04:50:57;9.80;99.90
12254;DHT22;6189;52.526;13.390;2024-03-23T04:53:46;9.90;99.90
12254;DHT22;6189;52.526;13.390;2024-03-23T04:56:34;9.90;99.90
12254;DHT22;6189;52.526;13.390;2024-03-23T04:59:22;10.00;99.90
12254;DHT22;6189;52.526;13.390;2024-03-23T05:02:08;10.10;99.90
12254;DHT22;6189;52.526;13.390;2024-03-23T05:04:55;10.00;99.90
12254;DHT22;6189;52.526;13.390;2024-03-23T05:07:41;10.00;99.90
12254;DHT22;6189;52.526;13.390;2024-03-23T05:10:30;10.00;99.90
12254;DHT22;6189;52.526;13.390;2024-03-23T05:13:18;10.10;99.90
12254;DHT22;6189;52.526;13.390;2024-03-23T05:16:05;10.10;99.90
12254;DHT22;6189;52.526;13.390;2024-03-23T05:18:52;10.10;99.90
12254;DHT22;6189;52.526;13.390;2024-03-23T05:21:39;10.10;99.90
12254;DHT22;6189;52.526;13.390;2024-03-23T05:24:25;10.10;99.90
12254;DHT22;6189;52.526;13.390;2024-03-23T05:27:13;10.10;99.90
12254;DHT22;6189;52.526;13.390;2024-03-23T05:29:59;10.00;99.90
12254;DHT22;6189;52.526;13.390;2024-03-23T05:32:47;10.10;99.90
12254;DHT22;6189;52.526;13.390;2024-03-23T05:35:33;10.10;99.90
12254;DHT22;6189;52.526;13.390;2024-03-23T05:38:20;10.10;99.90
12254;DHT22;6189;52.526;13.390;2024-03-23T05:41:06;10.20;99.90
12254;DHT22;6189;52.526;13.390;2024-03-23T05:43:54;10.30;99.90
12254;DHT22;6189;52.526;13.390;2024-03-23T05:46:40;10.20;99.90
12254;DHT22;6189;52.526;13.390;2024-03-23T05:49:27;10.30;99.90
12254;DHT22;6189;52.526;13.390;2024-03-23T05:52:14;10.30;99.90
12254;DHT22;6189;52.526;13.390;2024-03-23T05:55:01;10.30;99.90
12254;DHT22;6189;52.526;13.390;2024-03-23T05:57:47;10.30;99.90
12254;DHT22;6189;52.526;13.390;2024-03-23T06:00:36;10.30;99.90
12254;DHT22;6189;52.526;13.390;2024-03-23T06:03:23;10.30;99.90
12254;DHT22;6189;52.526;13.390;2024-03-23T06:06:10;10.30;99.90
12254;DHT22;6189;52.526;13.390;2024-03-23T06:08:58;10.30;99.90
12254;DHT22;6189;52.526;13.390;2024-03-23T06:11:45;10.20;99.90
12254;DHT22;6189;52.526;13.390;2024-03-23T06:14:31;10.30;99.90
12254;DHT22;6189;52.526;13.390;2024-03-23T06:17:21;10.30;99.90
12254;DHT22;6189;52.526;13.390;2024-03-23T06:20:07;10.30;99.90
12254;DHT22;6189;52.526;13.390;2024-03-23T06:22:55;10.20;99.90
12254;DHT22;6189;52.526;13.390;2024-03-23T06:25:42;10.10;99.90
12254;DHT22;6189;52.526;13.390;2024-03-23T06:28:28;10.00;99.90
12254;DHT22;6189;52.526;13.390;2024-03-23T06:31:16;10.00;99.90
12254;DHT22;6189;52.526;13.390;2024-03-23T06:34:03;10.00;99.90
12254;DHT22;6189;52.526;13.390;2024-03-23T06:36:50;10.10;99.90
12254;DHT22;6189;52.526;13.390;2024-03-23T06:39:37;10.00;99.90
12254;DHT22;6189;52.526;13.390;2024-03-23T06:42:24;9.90;99.90
12254;DHT22;6189;52.526;13.390;2024-03-23T06:45:10;10.00;99.90
12254;DHT22;6189;52.526;13.390;2024-03-23T06:47:57;10.00;99.90
12254;DHT22;6189;52.526;13.390;2024-03-23T06:50:45;10.10;99.90
12254;DHT22;6189;52.526;13.390;2024-03-23T06:53:32;10.10;99.90
12254;DHT22;6189;52.526;13.390;2024-03-23T06:56:19;10.10;99.90
12254;DHT22;6189;52.526;13.390;2024-03-23T06:59:06;10.10;99.90
12254;DHT22;6189;52.526;13.390;2024-03-23T07:01:53;10.10;99.90
12254;DHT22;6189;52.526;13.390;2024-03-23T07:04:39;10.20;99.90
12254;DHT22;6189;52.526;13.390;2024-03-23T07:07:28;10.20;99.90
12254;DHT22;6189;52.526;13.390;2024-03-23T07:10:15;10.10;99.90
12254;DHT22;6189;52.526;13.390;2024-03-23T07:13:03;10.00;99.90
12254;DHT22;6189;52.526;13.390;2024-03-23T07:15:53;9.90;99.90
12254;DHT22;6189;52.526;13.390;2024-03-23T07:18:41;9.90;99.90
12254;DHT22;6189;52.526;13.390;2024-03-23T07:21:27;9.90;99.90
12254;DHT22;6189;52.526;13.390;2024-03-23T07:24:16;9.80;99.90
12254;DHT22;6189;52.526;13.390;2024-03-23T07:27:02;10.00;99.90
12254;DHT22;6189;52.526;13.390;2024-03-23T07:29:49;9.70;99.90
12254;DHT22;6189;52.526;13.390;2024-03-23T07:32:35;9.70;99.90
12254;DHT22;6189;52.526;13.390;2024-03-23T07:35:22;9.70;99.90
12254;DHT22;6189;52.526;13.390;2024-03-23T07:38:08;9.90;99.90
12254;DHT22;6189;52.526;13.390;2024-03-23T07:41:06;9.90;99.90
12254;DHT22;6189;52.526;13.390;2024-03-23T07:43:53;9.80;99.90
12254;DHT22;6189;52.526;13.390;2024-03-23T07:46:39;9.90;99.90
12254;DHT22;6189;52.526;13.390;2024-03-23T07:49:27;9.80;99.90
12254;DHT22;6189;52.526;13.390;2024-03-23T07:52:13;9.90;99.90
12254;DHT22;6189;52.526;13.390;2024-03-23T07:55:00;9.90;99.90
12254;DHT22;6189;52.526;13.390;2024-03-23T07:57:49;10.00;99.90
12254;DHT22;6189;52.526;13.390;2024-03-23T08:00:39;10.00;99.90
12254;DHT22;6189;52.526;13.390;2024-03-23T08:03:25;10.00;99.90
12254;DHT22;6189;52.526;13.390;2024-03-23T08:06:12;10.00;99.90
12254;DHT22;6189;52.526;13.390;2024-03-23T08:09:00;10.10;99.90
12254;DHT22;6189;52.526;13.390;2024-03-23T08:11:46;10.20;99.90
12254;DHT22;6189;52.526;13.390;2024-03-23T08:14:34;10.10;99.90
12254;DHT22;6189;52.526;13.390;2024-03-23T08:17:20;10.00;99.90
12254;DHT22;6189;52.526;13.390;2024-03-23T08:20:08;10.00;99.90
12254;DHT22;6189;52.526;13.390;2024-03-23T08:22:54;9.90;99.90
12254;DHT22;6189;52.526;13.390;2024-03-23T08:25:41;9.80;99.90
12254;DHT22;6189;52.526;13.390;2024-03-23T08:28:28;9.70;99.90
12254;DHT22;6189;52.526;13.390;2024-03-23T08:31:16;9.60;99.90
12254;DHT22;6189;52.526;13.390;2024-03-23T08:34:03;9.60;99.90
12254;DHT22;6189;52.526;13.390;2024-03-23T08:36:50;9.60;99.90
12254;DHT22;6189;52.526;13.390;2024-03-23T08:39:36;9.60;99.90
12254;DHT22;6189;52.526;13.390;2024-03-23T08:42:23;9.70;99.90
12254;DHT22;6189;52.526;13.390;2024-03-23T08:45:10;10.10;99.90
12254;DHT22;6189;52.526;13.390;2024-03-23T08:47:58;9.40;99.90
12254;DHT22;6189;52.526;13.390;2024-03-23T08:50:44;9.40;99.90
12254;DHT22;6189;52.526;13.390;2024-03-23T08:53:32;9.40;99.90
12254;DHT22;6189;52.526;13.390;2024-03-23T08:56:18;9.30;99.90
12254;DHT22;6189;52.526;13.390;2024-03-23T08:59:05;9.30;99.90
12254;DHT22;6189;52.526;13.390;2024-03-23T09:01:52;9.60;99.90
12254;DHT22;6189;52.526;13.390;2024-03-23T09:04:41;9.30;99.90
12254;DHT22;6189;52.526;13.390;2024-03-23T09:07:27;8.90;99.90
12254;DHT22;6189;52.526;13.390;2024-03-23T09:10:14;9.00;99.90
12254;DHT22;6189;52.526;13.390;2024-03-23T09:13:02;9.10;99.90
12254;DHT22;6189;52.526;13.390;2024-03-23T09:15:48;9.20;99.90
12254;DHT22;6189;52.526;13.390;2024-03-23T09:18:36;9.20;99.90
12254;DHT22;6189;52.526;13.390;2024-03-23T09:21:25;9.00;99.90
12254;DHT22;6189;52.526;13.390;2024-03-23T09:24:11;8.70;99.90
12254;DHT22;6189;52.526;13.390;2024-03-23T09:26:58;8.40;99.90
12254;DHT22;6189;52.526;13.390;2024-03-23T09:29:44;8.40;99.90
12254;DHT22;6189;52.526;13.390;2024-03-23T09:32:31;8.10;99.90
12254;DHT22;6189;52.526;13.390;2024-03-23T09:35:17;8.10;99.90
12254;DHT22;6189;52.526;13.390;2024-03-23T09:38:06;8.10;99.90
12254;DHT22;6189;52.526;13.390;2024-03-23T09:40:53;8.20;99.90
12254;DHT22;6189;52.526;13.390;2024-03-23T09:43:40;8.20;99.90
12254;DHT22;6189;52.526;13.390;2024-03-23T09:46:26;8.30;99.90
12254;DHT22;6189;52.526;13.390;2024-03-23T09:49:14;8.30;99.90
12254;DHT22;6189;52.526;13.390;2024-03-23T09:52:00;8.20;99.90
12254;DHT22;6189;52.526;13.390;2024-03-23T09:54:48;8.20;99.90
12254;DHT22;6189;52.526;13.390;2024-03-23T09:57:34;8.00;99.90
12254;DHT22;6189;52.526;13.390;2024-03-23T10:00:22;8.10;99.90
12254;DHT22;6189;52.526;13.390;2024-03-23T10:03:08;8.30;99.90
12254;DHT22;6189;52.526;13.390;2024-03-23T10:06:00;8.40;99.90
12254;DHT22;6189;52.526;13.390;2024-03-23T10:08:46;8.50;99.90
12254;DHT22;6189;52.526;13.390;2024-03-23T10:11:35;8.60;99.90
12254;DHT22;6189;52.526;13.390;2024-03-23T10:14:25;8.60;99.90
12254;DHT22;6189;52.526;13.390;2024-03-23T10:17:16;8.80;99.90
12254;DHT22;6189;52.526;13.390;2024-03-23T10:20:03;9.00;99.90
12254;DHT22;6189;52.526;13.390;2024-03-23T10:22:56;8.70;99.90
12254;DHT22;6189;52.526;13.390;2024-03-23T10:25:44;8.60;99.90
12254;DHT22;6189;52.526;13.390;2024-03-23T10:28:32;8.40;99.90
12254;DHT22;6189;52.526;13.390;2024-03-23T10:31:20;8.40;99.90
12254;DHT22;6189;52.526;13.390;2024-03-23T10:34:06;8.50;99.90
12254;DHT22;6189;52.526;13.390;2024-03-23T10:36:54;8.80;99.90
12254;DHT22;6189;52.526;13.390;2024-03-23T10:39:43;9.00;99.90
12254;DHT22;6189;52.526;13.390;2024-03-23T10:42:29;8.90;99.90
12254;DHT22;6189;52.526;13.390;2024-03-23T10:45:17;8.90;99.90
12254;DHT22;6189;52.526;13.390;2024-03-23T10:48:04;8.80;99.90
12254;DHT22;6189;52.526;13.390;2024-03-23T10:50:51;8.80;99.90
12254;DHT22;6189;52.526;13.390;2024-03-23T10:53:38;9.30;99.90
12254;DHT22;6189;52.526;13.390;2024-03-23T10:56:25;9.20;99.90
12254;DHT22;6189;52.526;13.390;2024-03-23T10:59:12;8.80;99.90
12254;DHT22;6189;52.526;13.390;2024-03-23T11:02:00;8.70;99.90
12254;DHT22;6189;52.526;13.390;2024-03-23T11:04:48;8.90;99.90
12254;DHT22;6189;52.526;13.390;2024-03-23T11:07:35;9.00;99.90
12254;DHT22;6189;52.526;13.390;2024-03-23T11:10:25;9.60;99.90
12254;DHT22;6189;52.526;13.390;2024-03-23T11:13:21;9.20;99.90
12254;DHT22;6189;52.526;13.390;2024-03-23T11:16:17;9.30;99.90
12254;DHT22;6189;52.526;13.390;2024-03-23T11:19:34;9.30;99.90
12254;DHT22;6189;52.526;13.390;2024-03-23T11:25:26;9.50;99.90
12254;DHT22;6189;52.526;13.390;2024-03-23T11:28:13;9.40;99.90
12254;DHT22;6189;52.526;13.390;2024-03-23T11:30:59;9.10;99.90
12254;DHT22;6189;52.526;13.390;2024-03-23T11:33:46;9.00;99.90
12254;DHT22;6189;52.526;13.390;2024-03-23T11:36:33;9.00;99.90
12254;DHT22;6189;52.526;13.390;2024-03-23T11:39:20;9.20;99.90
12254;DHT22;6189;52.526;13.390;2024-03-23T11:42:06;9.30;99.90
12254;DHT22;6189;52.526;13.390;2024-03-23T11:44:54;9.50;99.90
12254;DHT22;6189;52.526;13.390;2024-03-23T11:47:40;9.50;99.90
12254;DHT22;6189;52.526;13.390;2024-03-23T11:50:27;9.70;99.90
12254;DHT22;6189;52.526;13.390;2024-03-23T11:53:15;9.80;99.90
12254;DHT22;6189;52.526;13.390;2024-03-23T11:56:03;10.20;99.90
12254;DHT22;6189;52.526;13.390;2024-03-23T11:58:49;10.10;99.90
12254;DHT22;6189;52.526;13.390;2024-03-23T12:01:37;10.20;99.90
12254;DHT22;6189;52.526;13.390;2024-03-23T12:04:25;10.20;99.90
12254;DHT22;6189;52.526;13.390;2024-03-23T12:07:12;10.30;99.90
12254;DHT22;6189;52.526;13.390;2024-03-23T12:10:04;10.20;99.90
12254;DHT22;6189;52.526;13.390;2024-03-23T12:12:59;10.10;99.90
12254;DHT22;6189;52.526;13.390;2024-03-23T12:15:46;10.10;99.90
12254;DHT22;6189;52.526;13.390;2024-03-23T12:18:33;10.10;99.90
12254;DHT22;6189;52.526;13.390;2024-03-23T12:21:20;10.00;99.90
12254;DHT22;6189;52.526;13.390;2024-03-23T12:24:08;9.90;99.90
12254;DHT22;6189;52.526;13.390;2024-03-23T12:27:00;9.90;99.90
12254;DHT22;6189;52.526;13.390;2024-03-23T12:29:48;9.90;99.90
12254;DHT22;6189;52.526;13.390;2024-03-23T12:32:34;9.80;99.90
12254;DHT22;6189;52.526;13.390;2024-03-23T12:35:21;9.80;99.90
12254;DHT22;6189;52.526;13.390;2024-03-23T12:38:07;9.90;99.90
12254;DHT22;6189;52.526;13.390;2024-03-23T12:40:54;9.90;99.90
12254;DHT22;6189;52.526;13.390;2024-03-23T12:43:41;10.00;99.90
12254;DHT22;6189;52.526;13.390;2024-03-23T12:46:28;10.10;99.90
12254;DHT22;6189;52.526;13.390;2024-03-23T12:49:14;10.00;99.90
12254;DHT22;6189;52.526;13.390;2024-03-23T12:52:02;10.00;99.90
12254;DHT22;6189;52.526;13.390;2024-03-23T12:54:50;10.00;99.90
12254;DHT22;6189;52.526;13.390;2024-03-23T12:57:37;10.00;99.90
12254;DHT22;6189;52.526;13.390;2024-03-23T13:00:25;10.10;99.90
12254;DHT22;6189;52.526;13.390;2024-03-23T13:03:13;10.10;99.90
12254;DHT22;6189;52.526;13.390;2024-03-23T13:05:59;10.10;99.90
12254;DHT22;6189;52.526;13.390;2024-03-23T13:08:46;10.10;99.90
12254;DHT22;6189;52.526;13.390;2024-03-23T13:11:35;10.10;99.90
12254;DHT22;6189;52.526;13.390;2024-03-23T13:14:21;10.10;99.90
12254;DHT22;6189;52.526;13.390;2024-03-23T13:17:10;10.20;99.90
12254;DHT22;6189;52.526;13.390;2024-03-23T13:19:56;10.10;99.90
12254;DHT22;6189;52.526;13.390;2024-03-23T13:22:43;10.30;99.90
12254;DHT22;6189;52.526;13.390;2024-03-23T13:25:30;10.20;99.90
12254;DHT22;6189;52.526;13.390;2024-03-23T13:28:19;10.30;99.90
12254;DHT22;6189;52.526;13.390;2024-03-23T13:31:06;10.40;99.90
12254;DHT22;6189;52.526;13.390;2024-03-23T13:33:53;10.50;99.90
12254;DHT22;6189;52.526;13.390;2024-03-23T13:36:40;10.60;99.90
12254;DHT22;6189;52.526;13.390;2024-03-23T13:39:27;10.60;99.90
12254;DHT22;6189;52.526;13.390;2024-03-23T13:42:14;10.80;99.90
12254;DHT22;6189;52.526;13.390;2024-03-23T13:45:01;10.70;99.90
12254;DHT22;6189;52.526;13.390;2024-03-23T13:47:49;10.80;99.90
12254;DHT22;6189;52.526;13.390;2024-03-23T13:50:37;10.80;99.90
12254;DHT22;6189;52.526;13.390;2024-03-23T13:53:24;10.90;99.90
12254;DHT22;6189;52.526;13.390;2024-03-23T13:56:10;10.90;99.90
12254;DHT22;6189;52.526;13.390;2024-03-23T13:58:58;10.90;99.90
12254;DHT22;6189;52.526;13.390;2024-03-23T14:01:45;11.00;99.90
12254;DHT22;6189;52.526;13.390;2024-03-23T14:04:32;11.00;99.90
12254;DHT22;6189;52.526;13.390;2024-03-23T14:07:20;11.20;99.90
12254;DHT22;6189;52.526;13.390;2024-03-23T14:10:07;11.00;99.90
12254;DHT22;6189;52.526;13.390;2024-03-23T14:12:56;10.90;99.90
12254;DHT22;6189;52.526;13.390;2024-03-23T14:15:45;10.90;99.90
12254;DHT22;6189;52.526;13.390;2024-03-23T14:18:32;11.00;99.90
12254;DHT22;6189;52.526;13.390;2024-03-23T14:21:19;11.00;99.90
12254;DHT22;6189;52.526;13.390;2024-03-23T14:24:07;11.00;99.90
12254;DHT22;6189;52.526;13.390;2024-03-23T14:26:55;10.90;99.90
12254;DHT22;6189;52.526;13.390;2024-03-23T14:29:41;10.90;99.90
12254;DHT22;6189;52.526;13.390;2024-03-23T14:32:28;10.90;99.90
12254;DHT22;6189;52.526;13.390;2024-03-23T14:35:16;10.80;99.90
12254;DHT22;6189;52.526;13.390;2024-03-23T14:38:04;10.70;99.90
12254;DHT22;6189;52.526;13.390;2024-03-23T14:40:51;10.80;99.90
12254;DHT22;6189;52.526;13.390;2024-03-23T14:43:38;10.70;99.90
12254;DHT22;6189;52.526;13.390;2024-03-23T14:46:24;10.70;99.90
12254;DHT22;6189;52.526;13.390;2024-03-23T14:49:14;10.60;99.90
12254;DHT22;6189;52.526;13.390;2024-03-23T14:52:02;10.50;99.90
12254;DHT22;6189;52.526;13.390;2024-03-23T14:54:49;10.40;99.90
12254;DHT22;6189;52.526;13.390;2024-03-23T14:57:37;10.50;99.90
12254;DHT22;6189;52.526;13.390;2024-03-23T15:00:24;10.10;99.90
12254;DHT22;6189;52.526;13.390;2024-03-23T15:03:12;9.70;99.90
12254;DHT22;6189;52.526;13.390;2024-03-23T15:05:58;9.40;99.90
12254;DHT22;6189;52.526;13.390;2024-03-23T15:08:47;9.30;99.90
12254;DHT22;6189;52.526;13.390;2024-03-23T15:11:33;9.30;99.90
12254;DHT22;6189;52.526;13.390;2024-03-23T15:14:23;9.50;99.90
12254;DHT22;6189;52.526;13.390;2024-03-23T15:17:09;9.40;99.90
12254;DHT22;6189;52.526;13.390;2024-03-23T15:19:56;9.30;99.90
12254;DHT22;6189;52.526;13.390;2024-03-23T15:22:43;9.40;99.90
12254;DHT22;6189;52.526;13.390;2024-03-23T15:25:29;9.40;99.90
12254;DHT22;6189;52.526;13.390;2024-03-23T15:28:17;9.50;99.90
12254;DHT22;6189;52.526;13.390;2024-03-23T15:31:05;9.60;99.90
12254;DHT22;6189;52.526;13.390;2024-03-23T15:33:52;9.60;99.90
12254;DHT22;6189;52.526;13.390;2024-03-23T15:36:38;9.60;99.90
12254;DHT22;6189;52.526;13.390;2024-03-23T15:39:25;10.10;99.90
12254;DHT22;6189;52.526;13.390;2024-03-23T15:42:11;9.80;99.90
12254;DHT22;6189;52.526;13.390;2024-03-23T15:44:58;9.90;99.90
12254;DHT22;6189;52.526;13.390;2024-03-23T15:47:47;9.90;99.90
12254;DHT22;6189;52.526;13.390;2024-03-23T15:50:35;9.90;99.90
12254;DHT22;6189;52.526;13.390;2024-03-23T15:53:22;9.90;99.90
12254;DHT22;6189;52.526;13.390;2024-03-23T15:56:09;9.50;99.90
12254;DHT22;6189;52.526;13.390;2024-03-23T15:58:56;10.00;99.90
12254;DHT22;6189;52.526;13.390;2024-03-23T16:01:48;10.00;99.90
12254;DHT22;6189;52.526;13.390;2024-03-23T16:04:35;9.90;99.90
12254;DHT22;6189;52.526;13.390;2024-03-23T16:07:23;9.90;99.90
12254;DHT22;6189;52.526;13.390;2024-03-23T16:10:09;10.00;99.90
12254;DHT22;6189;52.526;13.390;2024-03-23T16:12:57;10.00;99.90
12254;DHT22;6189;52.526;13.390;2024-03-23T16:15:44;10.00;99.90
12254;DHT22;6189;52.526;13.390;2024-03-23T16:18:32;9.90;99.90
12254;DHT22;6189;52.526;13.390;2024-03-23T16:21:19;10.00;99.90
12254;DHT22;6189;52.526;13.390;2024-03-23T16:24:06;10.00;99.90
12254;DHT22;6189;52.526;13.390;2024-03-23T16:26:53;10.00;99.90
12254;DHT22;6189;52.526;13.390;2024-03-23T16:29:40;9.90;99.90
12254;DHT22;6189;52.526;13.390;2024-03-23T16:32:28;9.90;99.90
12254;DHT22;6189;52.526;13.390;2024-03-23T16:35:15;10.00;99.90
12254;DHT22;6189;52.526;13.390;2024-03-23T16:38:04;9.80;99.90
12254;DHT22;6189;52.526;13.390;2024-03-23T16:40:54;9.90;99.90
12254;DHT22;6189;52.526;13.390;2024-03-23T16:43:41;9.80;99.90
12254;DHT22;6189;52.526;13.390;2024-03-23T16:46:27;9.90;99.90
12254;DHT22;6189;52.526;13.390;2024-03-23T16:49:15;9.90;99.90
12254;DHT22;6189;52.526;13.390;2024-03-23T16:52:03;9.70;99.90
12254;DHT22;6189;52.526;13.390;2024-03-23T16:54:52;9.70;99.90
12254;DHT22;6189;52.526;13.390;2024-03-23T16:57:38;9.70;99.90
12254;DHT22;6189;52.526;13.390;2024-03-23T17:00:25;9.80;99.90
12254;DHT22;6189;52.526;13.390;2024-03-23T17:03:12;9.80;99.90
12254;DHT22;6189;52.526;13.390;2024-03-23T17:06:02;9.80;99.90
12254;DHT22;6189;52.526;13.390;2024-03-23T17:20:05;9.70;99.90
12254;DHT22;6189;52.526;13.390;2024-03-23T17:22:53;9.70;99.90
12254;DHT22;6189;52.526;13.390;2024-03-23T17:25:39;9.70;99.90
12254;DHT22;6189;52.526;13.390;2024-03-23T17:28:26;14.30;99.90
12254;DHT22;6189;52.526;13.390;2024-03-23T17:31:16;9.60;99.90
12254;DHT22;6189;52.526;13.390;2024-03-23T17:34:02;9.60;99.90
12254;DHT22;6189;52.526;13.390;2024-03-23T17:36:50;9.60;99.90
12254;DHT22;6189;52.526;13.390;2024-03-23T17:39:36;9.60;99.90
12254;DHT22;6189;52.526;13.390;2024-03-23T17:42:24;9.60;99.90
12254;DHT22;6189;52.526;13.390;2024-03-23T17:45:10;9.70;99.90
12254;DHT22;6189;52.526;13.390;2024-03-23T17:47:57;9.60;99.90
12254;DHT22;6189;52.526;13.390;2024-03-23T17:50:43;9.60;99.90
12254;DHT22;6189;52.526;13.390;2024-03-23T17:53:38;9.60;99.90
12254;DHT22;6189;52.526;13.390;2024-03-23T17:56:24;9.50;99.90
12254;DHT22;6189;52.526;13.390;2024-03-23T17:59:12;9.50;99.90
12254;DHT22;6189;52.526;13.390;2024-03-23T18:01:58;9.50;99.90
12254;DHT22;6189;52.526;13.390;2024-03-23T18:04:45;9.60;99.90
12254;DHT22;6189;52.526;13.390;2024-03-23T18:07:33;9.50;99.90
12254;DHT22;6189;52.526;13.390;2024-03-23T18:10:20;9.50;99.90
12254;DHT22;6189;52.526;13.390;2024-03-23T18:13:08;9.50;99.90
12254;DHT22;6189;52.526;13.390;2024-03-23T18:15:57;9.60;99.90
12254;DHT22;6189;52.526;13.390;2024-03-23T18:18:45;9.70;99.90
12254;DHT22;6189;52.526;13.390;2024-03-23T18:21:31;9.50;99.90
12254;DHT22;6189;52.526;13.390;2024-03-23T18:24:18;9.50;99.90
12254;DHT22;6189;52.526;13.390;2024-03-23T18:27:06;9.30;99.90
12254;DHT22;6189;52.526;13.390;2024-03-23T18:29:55;9.30;99.90
12254;DHT22;6189;52.526;13.390;2024-03-23T18:32:41;9.40;99.90
12254;DHT22;6189;52.526;13.390;2024-03-23T18:35:28;9.10;99.90
12254;DHT22;6189;52.526;13.390;2024-03-23T18:38:14;8.90;99.90
12254;DHT22;6189;52.526;13.390;2024-03-23T18:41:01;11.00;99.90
12254;DHT22;6189;52.526;13.390;2024-03-23T18:43:48;8.80;99.90
12254;DHT22;6189;52.526;13.390;2024-03-23T18:46:36;8.70;99.90
12254;DHT22;6189;52.526;13.390;2024-03-23T18:49:22;8.70;99.90
12254;DHT22;6189;52.526;13.390;2024-03-23T18:52:09;9.00;99.90
12254;DHT22;6189;52.526;13.390;2024-03-23T18:54:55;8.50;99.90
12254;DHT22;6189;52.526;13.390;2024-03-23T18:57:43;8.40;99.90
12254;DHT22;6189;52.526;13.390;2024-03-23T19:00:30;8.30;99.90